Time;durP1;ratioP1;P1;durP2;ratioP2;P2;SDS_P1;SDS_P2;PMS_P1;PMS_P2;Temp;Humidity;BMP_temperature;BMP_pressure;BME280_temperature;BME280_humidity;BME280_pressure;Samples;Min_cycle;Max_cycle;Signal;HPM_P1;HPM_P2
2023/05/14 00:01:50;;;;;;;60.60;29.90;;;;;;;;;;4993391;28;20038;-76
2023/05/14 00:04:18;;;;;;;61.67;28.17;;;;;;;;;;4982999;28;20042;-76
2023/05/14 00:06:44;;;;;;;43.58;25.20;;;;;;;;;;4985298;28;20030;-76
2023/05/14 00:09:09;;;;;;;74.70;34.30;;;;;;;;;;4979951;28;20338;-76
2023/05/14 00:11:34;;;;;;;99.63;48.90;;;;;;;;;;4977402;28;20101;-76
2023/05/14 00:14:00;;;;;;;97.38;45.35;;;;;;;;;;4978778;28;20058;-76
2023/05/14 00:16:25;;;;;;;47.03;24.15;;;;;;;;;;4980914;28;20097;-76
2023/05/14 00:18:50;;;;;;;48.95;20.77;;;;;;;;;;4984560;28;20045;-77
2023/05/14 00:21:16;;;;;;;40.15;18.92;;;;;;;;;;4984807;28;20038;-76
2023/05/14 00:23:41;;;;;;;36.78;18.95;;;;;;;;;;4975945;28;20081;-76
2023/05/14 00:26:07;;;;;;;57.50;24.25;;;;;;;;;;4975749;28;20458;-76
2023/05/14 00:28:32;;;;;;;39.97;19.40;;;;;;;;;;4976328;28;20034;-76
2023/05/14 00:30:57;;;;;;;41.65;21.23;;;;;;;;;;4976555;28;20406;-76
2023/05/14 00:33:23;;;;;;;41.83;20.80;;;;;;;;;;4994265;28;20038;-76
2023/05/14 00:35:48;;;;;;;45.15;22.70;;;;;;;;;;4990756;28;20379;-76
2023/05/14 00:38:18;;;;;;;66.85;26.25;;;;;;;;;;4984134;28;20376;-77
2023/05/14 00:40:48;;;;;;;50.30;22.63;;;;;;;;;;4976795;28;20055;-76
2023/05/14 00:43:14;;;;;;;47.97;20.75;;;;;;;;;;4984655;28;20029;-76
2023/05/14 00:45:40;;;;;;;41.88;19.50;;;;;;;;;;4988827;28;20043;-76
2023/05/14 00:48:05;;;;;;;43.50;21.83;;;;;;;;;;4977036;28;20475;-76
2023/05/14 00:50:31;;;;;;;54.42;24.83;;;;;;;;;;4980181;28;20026;-76
2023/05/14 00:52:56;;;;;;;44.95;23.88;;;;;;;;;;4982923;28;20173;-76
2023/05/14 00:55:22;;;;;;;58.00;25.45;;;;;;;;;;4981004;28;20038;-76
2023/05/14 00:57:49;;;;;;;55.10;25.30;;;;;;;;;;4986239;28;20058;-76
2023/05/14 01:00:15;;;;;;;57.20;26.10;;;;;;;;;;4980260;28;20042;-76
2023/05/14 01:02:40;;;;;;;42.95;19.55;;;;;;;;;;4993790;28;20038;-76
2023/05/14 01:05:07;;;;;;;38.92;20.48;;;;;;;;;;4992638;28;20034;-76
2023/05/14 01:07:45;;;;;;;45.45;19.45;;;;;;;;;;4992347;28;20070;-76
2023/05/14 01:10:16;;;;;;;45.85;19.67;;;;;;;;;;4993929;28;20077;-76
2023/05/14 01:13:19;;;;;;;39.28;16.40;;;;;;;;;;4992662;28;20041;-76
2023/05/14 01:15:46;;;;;;;23.83;12.65;;;;;;;;;;4984187;28;20057;-76
2023/05/14 01:18:13;;;;;;;33.38;13.93;;;;;;;;;;4992472;28;20076;-76
2023/05/14 01:20:38;;;;;;;31.27;14.35;;;;;;;;;;4992397;28;20507;-76
2023/05/14 01:23:04;;;;;;;28.17;14.20;;;;;;;;;;4993581;28;20030;-76
2023/05/14 01:25:30;;;;;;;42.80;15.75;;;;;;;;;;4993434;28;20430;-76
2023/05/14 01:28:18;;;;;;;33.90;15.82;;;;;;;;;;4993592;28;20069;-76
2023/05/14 01:31:07;;;;;;;36.83;15.90;;;;;;;;;;4989663;28;20399;-76
2023/05/14 01:33:33;;;;;;;21.63;10.80;;;;;;;;;;4991997;28;20426;-76
2023/05/14 01:35:58;;;;;;;34.53;12.48;;;;;;;;;;4992445;28;20046;-76
2023/05/14 01:38:24;;;;;;;37.85;14.57;;;;;;;;;;4992382;28;20386;-76
2023/05/14 01:40:51;;;;;;;37.67;13.60;;;;;;;;;;4992087;28;20394;-76
2023/05/14 01:43:17;;;;;;;27.25;11.93;;;;;;;;;;4990725;28;20026;-76
2023/05/14 01:45:42;;;;;;;21.80;10.80;;;;;;;;;;4993408;28;20491;-76
2023/05/14 01:48:08;;;;;;;25.63;13.27;;;;;;;;;;4993071;28;20065;-76
2023/05/14 01:50:33;;;;;;;24.73;12.85;;;;;;;;;;4993496;28;20049;-76
2023/05/14 01:52:59;;;;;;;25.02;12.02;;;;;;;;;;4990539;28;20038;-76
2023/05/14 01:55:24;;;;;;;26.25;10.68;;;;;;;;;;4988346;28;20035;-76
2023/05/14 01:57:50;;;;;;;20.45;10.73;;;;;;;;;;4978444;28;20054;-76
2023/05/14 02:00:16;;;;;;;24.88;9.45;;;;;;;;;;4989477;28;20027;-76
2023/05/14 02:02:41;;;;;;;17.67;9.88;;;;;;;;;;4992595;28;20043;-76
2023/05/14 02:05:08;;;;;;;19.85;10.02;;;;;;;;;;4995867;28;20042;-76
2023/05/14 02:07:33;;;;;;;19.85;10.50;;;;;;;;;;4990610;28;20030;-76
2023/05/14 02:09:58;;;;;;;20.92;10.82;;;;;;;;;;4996952;28;20073;-76
2023/05/14 02:12:25;;;;;;;25.83;11.70;;;;;;;;;;4995758;28;20483;-76
2023/05/14 02:14:50;;;;;;;24.40;11.35;;;;;;;;;;4996700;28;20431;-76
2023/05/14 02:17:16;;;;;;;31.45;13.73;;;;;;;;;;4987995;28;20043;-76
2023/05/14 02:19:42;;;;;;;35.50;14.35;;;;;;;;;;4989809;28;20038;-76
2023/05/14 02:22:08;;;;;;;22.95;11.73;;;;;;;;;;4977361;28;20027;-76
2023/05/14 02:24:33;;;;;;;30.02;12.52;;;;;;;;;;4989509;28;20109;-76
2023/05/14 02:26:59;;;;;;;33.05;13.75;;;;;;;;;;4987974;28;20109;-76
2023/05/14 02:29:25;;;;;;;30.10;12.57;;;;;;;;;;4991399;28;20034;-76
2023/05/14 02:31:51;;;;;;;38.47;11.82;;;;;;;;;;4995296;28;20036;-76
2023/05/14 02:34:16;;;;;;;21.17;9.15;;;;;;;;;;4996500;28;20493;-76
2023/05/14 02:36:41;;;;;;;25.30;10.52;;;;;;;;;;4996323;28;20062;-76
2023/05/14 02:39:07;;;;;;;21.95;10.65;;;;;;;;;;4996392;28;20041;-76
2023/05/14 02:41:32;;;;;;;22.10;9.43;;;;;;;;;;4996256;28;20049;-76
2023/05/14 02:43:58;;;;;;;29.67;11.70;;;;;;;;;;4996249;28;20033;-76
2023/05/14 02:46:23;;;;;;;27.30;10.25;;;;;;;;;;4996313;28;20032;-76
2023/05/14 02:48:48;;;;;;;26.08;9.93;;;;;;;;;;4996050;28;20402;-76
2023/05/14 02:51:15;;;;;;;21.17;10.23;;;;;;;;;;4995602;28;20084;-76
2023/05/14 02:53:40;;;;;;;20.27;9.95;;;;;;;;;;4983885;28;20117;-76
2023/05/14 02:56:06;;;;;;;19.90;9.15;;;;;;;;;;4986828;28;20085;-75
2023/05/14 02:58:32;;;;;;;23.75;9.48;;;;;;;;;;4979696;28;20038;-76
2023/05/14 03:00:57;;;;;;;17.80;9.70;;;;;;;;;;4986147;28;20081;-76
2023/05/14 03:03:23;;;;;;;21.88;9.88;;;;;;;;;;4995554;28;20061;-76
2023/05/14 03:05:48;;;;;;;27.92;11.32;;;;;;;;;;4995911;28;20030;-76
2023/05/14 03:08:13;;;;;;;24.77;11.82;;;;;;;;;;4994847;28;20474;-76
2023/05/14 03:10:39;;;;;;;26.13;10.73;;;;;;;;;;4995647;28;20049;-76
2023/05/14 03:13:04;;;;;;;24.75;11.35;;;;;;;;;;4985894;28;20498;-76
2023/05/14 03:15:30;;;;;;;23.50;9.82;;;;;;;;;;4994489;28;20034;-76
2023/05/14 03:17:55;;;;;;;18.13;9.48;;;;;;;;;;4995530;28;20061;-76
2023/05/14 03:20:22;;;;;;;18.45;9.20;;;;;;;;;;4994860;28;20113;-76
2023/05/14 03:22:48;;;;;;;20.05;8.75;;;;;;;;;;4995073;28;20478;-76
2023/05/14 03:25:13;;;;;;;27.00;10.85;;;;;;;;;;4979561;28;20048;-76
2023/05/14 03:27:38;;;;;;;22.83;9.70;;;;;;;;;;4978159;28;20150;-76
2023/05/14 03:30:05;;;;;;;23.20;9.65;;;;;;;;;;4994779;28;20042;-76
2023/05/14 03:32:30;;;;;;;27.10;10.27;;;;;;;;;;4995213;28;20053;-76
2023/05/14 03:34:55;;;;;;;24.30;10.00;;;;;;;;;;4994059;28;20434;-76
2023/05/14 03:37:21;;;;;;;24.10;9.68;;;;;;;;;;4994007;28;20406;-76
2023/05/14 03:39:46;;;;;;;29.00;10.52;;;;;;;;;;4995112;28;20046;-76
2023/05/14 03:42:11;;;;;;;30.52;11.32;;;;;;;;;;4994800;28;20027;-76
2023/05/14 03:44:37;;;;;;;22.70;9.80;;;;;;;;;;4995180;28;20311;-76
2023/05/14 03:47:02;;;;;;;23.67;10.00;;;;;;;;;;4994955;28;20510;-76
2023/05/14 03:49:28;;;;;;;25.83;10.70;;;;;;;;;;4995032;28;20513;-76
2023/05/14 03:51:53;;;;;;;35.33;11.35;;;;;;;;;;4994991;28;20066;-76
2023/05/14 03:54:18;;;;;;;45.22;11.57;;;;;;;;;;4980939;28;20039;-76
2023/05/14 03:56:44;;;;;;;44.20;10.90;;;;;;;;;;4986786;28;20460;-76
2023/05/14 03:59:10;;;;;;;31.48;10.20;;;;;;;;;;4979772;28;20042;-76
2023/05/14 04:01:35;;;;;;;39.35;10.40;;;;;;;;;;4983125;28;20034;-76
2023/05/14 04:04:00;;;;;;;33.65;10.95;;;;;;;;;;4981444;28;20471;-76
2023/05/14 04:06:26;;;;;;;33.33;10.90;;;;;;;;;;4994803;28;20034;-76
2023/05/14 04:08:51;;;;;;;35.85;10.88;;;;;;;;;;4991962;28;20050;-76
2023/05/14 04:11:17;;;;;;;35.65;11.65;;;;;;;;;;4982330;28;20029;-76
2023/05/14 04:13:42;;;;;;;34.03;11.93;;;;;;;;;;4991866;28;20085;-76
2023/05/14 04:16:07;;;;;;;40.47;10.65;;;;;;;;;;4983648;28;20505;-76
2023/05/14 04:18:36;;;;;;;34.38;10.73;;;;;;;;;;4990999;28;20037;-76
2023/05/14 04:21:01;;;;;;;24.92;9.98;;;;;;;;;;4977382;28;20066;-76
2023/05/14 04:23:26;;;;;;;22.83;10.02;;;;;;;;;;4988665;28;20069;-76
2023/05/14 04:25:52;;;;;;;31.35;10.60;;;;;;;;;;4994420;28;20037;-76
2023/05/14 04:28:17;;;;;;;29.98;10.68;;;;;;;;;;4994476;28;20030;-76
2023/05/14 04:30:43;;;;;;;28.58;10.18;;;;;;;;;;4994230;28;20406;-76
2023/05/14 04:33:09;;;;;;;43.97;10.27;;;;;;;;;;4994366;28;20027;-76
2023/05/14 04:35:34;;;;;;;32.97;10.48;;;;;;;;;;4994149;28;20097;-76
2023/05/14 04:37:59;;;;;;;32.67;9.90;;;;;;;;;;4993981;28;20129;-76
2023/05/14 04:40:25;;;;;;;39.20;10.35;;;;;;;;;;4994152;28;20037;-76
2023/05/14 04:42:50;;;;;;;29.00;9.07;;;;;;;;;;4992227;28;20363;-76
2023/05/14 04:45:15;;;;;;;31.33;9.65;;;;;;;;;;4993859;28;20039;-76
2023/05/14 04:47:41;;;;;;;40.53;10.50;;;;;;;;;;4993875;28;20038;-76
2023/05/14 04:50:08;;;;;;;52.47;10.20;;;;;;;;;;4982158;28;20041;-76
2023/05/14 04:52:34;;;;;;;54.38;10.35;;;;;;;;;;4991428;28;20049;-76
2023/05/14 04:54:59;;;;;;;74.53;11.75;;;;;;;;;;4994055;28;20038;-76
2023/05/14 04:57:25;;;;;;;52.55;10.13;;;;;;;;;;4993887;28;20491;-76
2023/05/14 04:59:50;;;;;;;28.85;10.13;;;;;;;;;;4993487;28;20486;-77
2023/05/14 05:02:16;;;;;;;49.22;10.98;;;;;;;;;;4987392;28;20046;-76
2023/05/14 05:04:41;;;;;;;47.92;11.00;;;;;;;;;;4983357;28;20034;-76
2023/05/14 05:07:06;;;;;;;35.88;11.52;;;;;;;;;;4976682;28;20031;-76
2023/05/14 05:09:32;;;;;;;52.97;11.30;;;;;;;;;;4986932;28;20374;-76
2023/05/14 05:11:57;;;;;;;39.55;11.25;;;;;;;;;;4986164;28;20095;-76
2023/05/14 05:14:23;;;;;;;40.95;10.30;;;;;;;;;;4989606;28;20045;-76
2023/05/14 05:16:48;;;;;;;29.65;10.93;;;;;;;;;;4984041;28;20493;-76
2023/05/14 05:19:13;;;;;;;31.45;10.32;;;;;;;;;;4987983;28;20030;-76
2023/05/14 05:21:42;;;;;;;55.22;10.88;;;;;;;;;;4982105;28;20388;-76
2023/05/14 05:24:07;;;;;;;26.80;10.15;;;;;;;;;;4984244;28;20038;-76
2023/05/14 05:26:35;;;;;;;36.28;10.52;;;;;;;;;;4983291;28;20361;-76
2023/05/14 05:29:02;;;;;;;54.15;10.75;;;;;;;;;;4993879;28;20046;-76
2023/05/14 05:31:27;;;;;;;33.10;9.07;;;;;;;;;;4996219;28;20029;-76
2023/05/14 05:33:52;;;;;;;23.20;9.15;;;;;;;;;;4996248;28;20381;-76
2023/05/14 05:36:18;;;;;;;31.08;10.63;;;;;;;;;;4995849;28;20046;-76
2023/05/14 05:38:43;;;;;;;46.05;10.55;;;;;;;;;;4997374;28;20046;-76
2023/05/14 05:41:08;;;;;;;31.38;10.95;;;;;;;;;;4997224;28;20026;-77
2023/05/14 05:43:34;;;;;;;26.48;9.45;;;;;;;;;;4996092;28;20069;-76
2023/05/14 05:46:00;;;;;;;34.00;10.30;;;;;;;;;;4997287;28;20426;-76
2023/05/14 05:48:25;;;;;;;60.05;10.43;;;;;;;;;;4997301;28;20026;-76
2023/05/14 05:50:51;;;;;;;61.00;10.88;;;;;;;;;;4997188;28;20051;-76
2023/05/14 05:53:17;;;;;;;58.38;10.00;;;;;;;;;;4996066;28;20031;-76
2023/05/14 05:55:42;;;;;;;38.40;10.20;;;;;;;;;;4997273;28;20038;-76
2023/05/14 05:58:08;;;;;;;27.30;9.50;;;;;;;;;;4996582;28;20086;-77
2023/05/14 06:00:33;;;;;;;30.73;8.63;;;;;;;;;;4996922;28;20050;-77
2023/05/14 06:02:59;;;;;;;34.20;9.55;;;;;;;;;;4991503;28;20475;-76
2023/05/14 06:05:24;;;;;;;45.60;9.75;;;;;;;;;;4980850;28;20051;-77
2023/05/14 06:07:50;;;;;;;25.33;8.88;;;;;;;;;;4981537;28;20035;-76
2023/05/14 06:10:15;;;;;;;26.05;8.90;;;;;;;;;;4986889;28;20030;-76
2023/05/14 06:12:41;;;;;;;58.92;9.82;;;;;;;;;;4981852;28;20479;-77
2023/05/14 06:15:07;;;;;;;156.15;14.38;;;;;;;;;;4983384;28;20062;-76
2023/05/14 06:17:32;;;;;;;30.15;8.80;;;;;;;;;;4981057;28;20510;-77
2023/05/14 06:19:58;;;;;;;65.03;11.02;;;;;;;;;;4992241;28;20122;-77
2023/05/14 06:22:23;;;;;;;90.13;11.82;;;;;;;;;;4983620;28;20038;-77
2023/05/14 06:24:48;;;;;;;20.67;7.82;;;;;;;;;;4993184;28;20463;-77
2023/05/14 06:27:14;;;;;;;16.63;7.40;;;;;;;;;;4996616;28;20045;-77
2023/05/14 06:29:39;;;;;;;92.10;11.57;;;;;;;;;;4996045;28;20467;-77
2023/05/14 06:32:05;;;;;;;11.43;7.15;;;;;;;;;;4988997;28;20039;-78
2023/05/14 06:34:30;;;;;;;12.38;6.82;;;;;;;;;;4978469;28;20050;-78
2023/05/14 06:36:56;;;;;;;14.15;7.43;;;;;;;;;;4985005;28;20057;-78
2023/05/14 06:39:22;;;;;;;10.38;6.90;;;;;;;;;;4982993;28;20089;-78
2023/05/14 06:41:48;;;;;;;10.93;7.85;;;;;;;;;;4984514;28;20048;-78
2023/05/14 06:44:14;;;;;;;15.00;8.73;;;;;;;;;;4982966;28;20026;-78
2023/05/14 06:46:40;;;;;;;11.88;7.63;;;;;;;;;;4983319;28;20096;-78
2023/05/14 06:49:05;;;;;;;14.65;8.77;;;;;;;;;;4995256;28;20038;-78
2023/05/14 06:51:31;;;;;;;16.40;9.93;;;;;;;;;;4995750;28;20030;-78
2023/05/14 06:53:56;;;;;;;15.85;9.50;;;;;;;;;;4984362;28;20058;-78
2023/05/14 06:56:22;;;;;;;14.93;9.30;;;;;;;;;;4983800;28;20502;-77
2023/05/14 06:58:47;;;;;;;15.75;10.35;;;;;;;;;;4982949;28;20053;-78
2023/05/14 07:01:13;;;;;;;25.42;11.50;;;;;;;;;;4985287;28;20033;-77
2023/05/14 07:03:38;;;;;;;18.50;10.70;;;;;;;;;;4995587;28;20053;-77
2023/05/14 07:06:04;;;;;;;20.25;10.48;;;;;;;;;;4995834;28;20038;-77
2023/05/14 07:08:29;;;;;;;21.65;10.65;;;;;;;;;;4990080;28;20037;-77
2023/05/14 07:10:56;;;;;;;21.27;10.43;;;;;;;;;;4977960;28;20062;-78
2023/05/14 07:13:21;;;;;;;25.55;11.05;;;;;;;;;;4981136;28;20459;-78
2023/05/14 07:15:47;;;;;;;22.25;11.52;;;;;;;;;;4988746;28;20035;-78
2023/05/14 07:18:12;;;;;;;23.42;13.27;;;;;;;;;;4986320;28;20539;-78
2023/05/14 07:20:38;;;;;;;24.92;12.73;;;;;;;;;;4989495;28;20045;-78
2023/05/14 07:23:03;;;;;;;24.20;12.98;;;;;;;;;;4982618;28;20038;-78
2023/05/14 07:25:28;;;;;;;24.67;14.38;;;;;;;;;;4981972;28;20034;-78
2023/05/14 07:27:54;;;;;;;26.00;15.43;;;;;;;;;;4978416;28;20037;-78
2023/05/14 07:30:20;;;;;;;26.00;14.07;;;;;;;;;;4984469;28;20030;-78
2023/05/14 07:32:45;;;;;;;32.55;17.13;;;;;;;;;;4993591;28;20042;-78
2023/05/14 07:35:10;;;;;;;34.28;18.15;;;;;;;;;;4995178;28;20489;-78
2023/05/14 07:37:36;;;;;;;32.67;18.00;;;;;;;;;;4991292;28;20043;-78
2023/05/14 07:40:02;;;;;;;33.90;18.48;;;;;;;;;;4995060;28;20042;-78
2023/05/14 07:42:27;;;;;;;31.88;17.58;;;;;;;;;;4994876;28;20048;-78
2023/05/14 07:44:53;;;;;;;27.95;17.35;;;;;;;;;;4995087;28;20045;-78
2023/05/14 07:47:18;;;;;;;32.25;19.30;;;;;;;;;;4994877;28;20478;-77
2023/05/14 07:49:43;;;;;;;29.50;17.65;;;;;;;;;;4992455;28;20110;-78
2023/05/14 07:52:09;;;;;;;30.77;17.60;;;;;;;;;;4993589;28;20034;-78
2023/05/14 07:54:34;;;;;;;30.20;18.30;;;;;;;;;;4994793;28;20038;-77
2023/05/14 07:57:00;;;;;;;27.33;16.83;;;;;;;;;;4994716;28;20489;-78
2023/05/14 07:59:25;;;;;;;29.50;17.40;;;;;;;;;;4994515;28;20477;-78
2023/05/14 08:01:50;;;;;;;30.25;17.77;;;;;;;;;;4994314;28;20121;-78
2023/05/14 08:04:16;;;;;;;32.20;18.17;;;;;;;;;;4989667;28;20455;-76
2023/05/14 08:06:42;;;;;;;30.85;17.30;;;;;;;;;;4988142;28;20117;-77
2023/05/14 08:09:08;;;;;;;28.80;17.60;;;;;;;;;;4986352;28;20647;-78
2023/05/14 08:11:33;;;;;;;26.35;15.38;;;;;;;;;;4982491;28;20117;-78
2023/05/14 08:13:59;;;;;;;32.90;17.52;;;;;;;;;;4983994;28;20105;-77
2023/05/14 08:16:25;;;;;;;28.33;17.00;;;;;;;;;;4984609;28;20117;-78
2023/05/14 08:18:50;;;;;;;26.17;16.27;;;;;;;;;;4988988;28;20038;-77
2023/05/14 08:21:16;;;;;;;27.77;16.17;;;;;;;;;;4993100;28;20038;-78
2023/05/14 08:23:41;;;;;;;24.25;15.65;;;;;;;;;;4993358;28;20084;-78
2023/05/14 08:26:07;;;;;;;28.35;16.73;;;;;;;;;;4983973;28;20034;-78
2023/05/14 08:28:32;;;;;;;24.52;14.98;;;;;;;;;;4983237;28;20039;-78
2023/05/14 08:30:58;;;;;;;27.92;16.63;;;;;;;;;;4989178;28;20108;-78
2023/05/14 08:33:23;;;;;;;31.30;19.67;;;;;;;;;;4986874;28;20431;-79
2023/05/14 08:35:51;;;;;;;40.08;21.08;;;;;;;;;;4994504;28;20474;-78
2023/05/14 08:38:17;;;;;;;27.33;16.92;;;;;;;;;;4989987;28;20034;-78
2023/05/14 08:40:47;;;;;;;27.95;16.30;;;;;;;;;;4994268;28;20049;-78
2023/05/14 08:43:15;;;;;;;28.00;16.85;;;;;;;;;;4994104;28;20030;-79
2023/05/14 08:45:41;;;;;;;26.27;15.60;;;;;;;;;;4992914;28;20053;-79
2023/05/14 08:48:07;;;;;;;24.58;15.55;;;;;;;;;;4993032;28;20034;-79
2023/05/14 08:50:34;;;;;;;27.08;15.73;;;;;;;;;;4992793;28;20109;-79
2023/05/14 08:53:00;;;;;;;23.63;15.45;;;;;;;;;;4993773;28;20042;-79
2023/05/14 08:55:25;;;;;;;25.45;15.30;;;;;;;;;;4992811;28;20037;-79
2023/05/14 08:57:51;;;;;;;27.95;16.60;;;;;;;;;;4992630;28;20109;-79
2023/05/14 09:00:17;;;;;;;25.70;16.27;;;;;;;;;;4993662;28;20084;-79
2023/05/14 09:02:43;;;;;;;26.02;16.63;;;;;;;;;;4985240;28;20046;-79
2023/05/14 09:05:09;;;;;;;25.02;15.88;;;;;;;;;;4980769;28;20038;-79
2023/05/14 09:07:35;;;;;;;27.58;17.60;;;;;;;;;;4986029;28;20035;-79
2023/05/14 09:10:01;;;;;;;26.77;16.45;;;;;;;;;;4988205;28;20049;-78
2023/05/14 09:12:27;;;;;;;23.80;15.45;;;;;;;;;;4982753;28;20041;-79
2023/05/14 09:14:52;;;;;;;25.85;15.82;;;;;;;;;;4981302;28;20435;-79
2023/05/14 09:17:18;;;;;;;25.95;16.63;;;;;;;;;;4975365;28;20046;-78
2023/05/14 09:19:47;;;;;;;24.88;15.52;;;;;;;;;;4979365;28;20090;-79
2023/05/14 09:22:14;;;;;;;27.10;16.35;;;;;;;;;;4975764;28;20046;-78
2023/05/14 09:24:40;;;;;;;27.02;17.70;;;;;;;;;;4989170;28;20034;-79
2023/05/14 09:27:06;;;;;;;24.58;16.35;;;;;;;;;;4986839;28;20364;-79
2023/05/14 09:29:32;;;;;;;24.48;15.75;;;;;;;;;;4982766;28;20050;-79
2023/05/14 09:32:01;;;;;;;28.45;18.48;;;;;;;;;;4983827;28;20069;-78
2023/05/14 09:34:31;;;;;;;25.30;16.08;;;;;;;;;;4980773;28;20035;-79
2023/05/14 09:36:59;;;;;;;24.77;15.82;;;;;;;;;;4986775;28;20044;-78
2023/05/14 09:39:25;;;;;;;24.73;16.80;;;;;;;;;;4978167;28;20495;-79
2023/05/14 09:41:51;;;;;;;25.65;16.90;;;;;;;;;;4992583;28;20026;-79
2023/05/14 09:44:17;;;;;;;26.08;16.48;;;;;;;;;;4976081;28;20057;-79
2023/05/14 09:46:43;;;;;;;23.20;16.15;;;;;;;;;;4991757;28;20034;-79
2023/05/14 09:49:08;;;;;;;25.85;17.15;;;;;;;;;;4993482;28;20131;-77
2023/05/14 09:51:36;;;;;;;26.50;18.25;;;;;;;;;;4981869;28;20487;-79
2023/05/14 09:54:03;;;;;;;25.67;17.40;;;;;;;;;;5014973;28;20084;-77
2023/05/14 09:56:28;;;;;;;28.15;17.67;;;;;;;;;;4982215;28;20042;-77
2023/05/14 09:58:53;;;;;;;28.10;19.42;;;;;;;;;;4986670;28;20062;-77
2023/05/14 10:01:19;;;;;;;29.02;20.88;;;;;;;;;;4989965;28;20510;-78
2023/05/14 10:03:45;;;;;;;30.85;21.05;;;;;;;;;;4984855;28;20386;-78
2023/05/14 10:06:12;;;;;;;34.97;21.63;;;;;;;;;;4985173;28;20501;-77
2023/05/14 10:08:40;;;;;;;33.35;21.83;;;;;;;;;;4992273;28;20386;-81
2023/05/14 10:11:12;;;;;;;31.63;21.30;;;;;;;;;;4984736;28;20077;-78
2023/05/14 10:13:40;;;;;;;31.00;20.65;;;;;;;;;;4976573;28;20039;-78
2023/05/14 10:16:06;;;;;;;31.10;20.48;;;;;;;;;;4979668;28;20030;-78
2023/05/14 10:18:37;;;;;;;27.83;19.75;;;;;;;;;;4979863;28;20062;-77
2023/05/14 10:21:04;;;;;;;30.35;20.52;;;;;;;;;;4981845;28;20040;-77
2023/05/14 10:23:30;;;;;;;27.60;18.65;;;;;;;;;;4996633;28;20026;-77
2023/05/14 10:25:56;;;;;;;28.45;19.30;;;;;;;;;;4996884;28;20038;-77
2023/05/14 10:28:22;;;;;;;25.30;16.40;;;;;;;;;;4996658;28;20121;-76
2023/05/14 10:30:49;;;;;;;27.83;19.90;;;;;;;;;;4996597;28;20168;-77
2023/05/14 10:33:15;;;;;;;26.98;18.38;;;;;;;;;;4995453;28;20037;-77
2023/05/14 10:35:55;;;;;;;30.50;19.08;;;;;;;;;;4996418;28;20038;-77
2023/05/14 10:38:33;;;;;;;27.42;18.60;;;;;;;;;;4995249;28;20050;-78
2023/05/14 10:41:01;;;;;;;28.48;19.58;;;;;;;;;;4996199;28;20410;-78
2023/05/14 10:43:29;;;;;;;27.38;17.38;;;;;;;;;;4986097;28;20394;-79
2023/05/14 10:45:55;;;;;;;27.70;17.92;;;;;;;;;;5011948;28;20443;-78
2023/05/14 10:48:20;;;;;;;25.38;16.55;;;;;;;;;;4982530;28;20133;-78
2023/05/14 10:50:55;;;;;;;25.88;16.10;;;;;;;;;;4996267;28;20039;-79
2023/05/14 10:53:31;;;;;;;24.88;15.30;;;;;;;;;;4994699;28;20125;-79
2023/05/14 10:55:56;;;;;;;22.02;14.00;;;;;;;;;;4990236;28;20050;-79
2023/05/14 10:58:22;;;;;;;21.10;13.88;;;;;;;;;;4975825;28;20047;-79
2023/05/14 11:00:48;;;;;;;20.35;13.13;;;;;;;;;;4985718;28;20114;-79
2023/05/14 11:03:15;;;;;;;19.17;12.43;;;;;;;;;;4995623;28;20030;-79
2023/05/14 11:05:40;;;;;;;17.30;12.15;;;;;;;;;;4994689;28;20050;-79
2023/05/14 11:08:07;;;;;;;19.80;12.55;;;;;;;;;;4994830;28;20042;-79
2023/05/14 11:10:33;;;;;;;19.00;11.85;;;;;;;;;;4995731;28;20036;-79
2023/05/14 11:12:58;;;;;;;17.42;12.32;;;;;;;;;;4995618;28;20133;-79
2023/05/14 11:15:27;;;;;;;17.95;12.20;;;;;;;;;;4995627;28;20089;-79
2023/05/14 11:17:53;;;;;;;17.80;12.20;;;;;;;;;;4983454;28;20039;-78
2023/05/14 11:20:19;;;;;;;16.58;11.68;;;;;;;;;;4976843;28;20050;-79
2023/05/14 11:22:46;;;;;;;20.63;11.98;;;;;;;;;;4981083;28;20044;-79
2023/05/14 11:25:13;;;;;;;17.98;12.43;;;;;;;;;;5019440;28;20026;-77
2023/05/14 11:27:39;;;;;;;20.00;13.50;;;;;;;;;;4991990;28;20499;-79
2023/05/14 11:30:11;;;;;;;20.00;12.50;;;;;;;;;;4990975;28;20449;-79
2023/05/14 11:32:36;;;;;;;22.35;14.05;;;;;;;;;;4989907;28;20074;-79
2023/05/14 11:35:02;;;;;;;20.17;13.63;;;;;;;;;;4995529;28;20581;-79
2023/05/14 11:37:29;;;;;;;22.73;13.80;;;;;;;;;;4995172;28;20121;-79
2023/05/14 11:40:00;;;;;;;21.00;15.07;;;;;;;;;;4994318;28;20031;-79
2023/05/14 11:42:25;;;;;;;23.77;14.07;;;;;;;;;;4991906;28;20041;-79
2023/05/14 11:44:52;;;;;;;19.85;14.13;;;;;;;;;;4994057;28;20046;-79
2023/05/14 11:47:19;;;;;;;18.73;13.52;;;;;;;;;;4993942;28;20031;-79
2023/05/14 11:49:45;;;;;;;21.10;14.48;;;;;;;;;;4995099;28;20049;-79
2023/05/14 11:52:17;;;;;;;17.13;13.13;;;;;;;;;;4981478;28;20046;-79
2023/05/14 11:54:44;;;;;;;21.27;13.00;;;;;;;;;;4994997;28;20042;-79
2023/05/14 11:57:15;;;;;;;20.63;14.48;;;;;;;;;;4980311;28;20108;-79
2023/05/14 11:59:41;;;;;;;21.63;13.95;;;;;;;;;;4994479;28;20479;-79
2023/05/14 12:02:11;;;;;;;20.83;14.45;;;;;;;;;;4984434;28;20053;-79
2023/05/14 12:04:37;;;;;;;19.60;13.55;;;;;;;;;;4994637;28;20109;-79
2023/05/14 12:07:14;;;;;;;21.23;14.82;;;;;;;;;;4994429;28;20034;-79
2023/05/14 12:09:41;;;;;;;21.52;14.40;;;;;;;;;;4980104;28;20407;-79
2023/05/14 12:12:11;;;;;;;22.10;15.10;;;;;;;;;;4981696;28;20049;-79
2023/05/14 12:14:38;;;;;;;20.70;15.20;;;;;;;;;;4986398;28;20030;-79
2023/05/14 12:17:12;;;;;;;17.95;13.90;;;;;;;;;;4987887;28;20046;-79
2023/05/14 12:19:42;;;;;;;20.55;14.65;;;;;;;;;;4978949;28;20051;-79
2023/05/14 12:22:09;;;;;;;24.27;15.05;;;;;;;;;;4989383;28;20062;-79
2023/05/14 12:24:35;;;;;;;20.75;13.40;;;;;;;;;;4994383;28;20038;-79
2023/05/14 12:27:01;;;;;;;18.85;13.52;;;;;;;;;;4991814;28;20038;-78
2023/05/14 12:29:27;;;;;;;17.77;12.18;;;;;;;;;;4994252;28;20038;-79
2023/05/14 12:31:52;;;;;;;14.75;10.65;;;;;;;;;;4992918;28;20373;-79
2023/05/14 12:34:17;;;;;;;13.20;9.75;;;;;;;;;;4994255;28;20039;-79
2023/05/14 12:36:43;;;;;;;16.13;9.10;;;;;;;;;;4993731;28;20038;-79
2023/05/14 12:39:09;;;;;;;10.30;6.75;;;;;;;;;;4993148;28;20049;-79
2023/05/14 12:41:34;;;;;;;14.75;8.25;;;;;;;;;;4990712;28;20030;-79
2023/05/14 12:44:02;;;;;;;12.68;7.40;;;;;;;;;;4985839;28;20043;-79
2023/05/14 12:46:28;;;;;;;11.02;7.68;;;;;;;;;;4976630;28;20089;-78
2023/05/14 12:48:54;;;;;;;14.10;8.10;;;;;;;;;;4983847;28;20074;-79
2023/05/14 12:51:19;;;;;;;12.82;8.10;;;;;;;;;;4976196;28;20054;-79
2023/05/14 12:53:44;;;;;;;11.23;7.50;;;;;;;;;;4993772;28;20096;-79
2023/05/14 12:56:10;;;;;;;13.60;7.38;;;;;;;;;;4994108;28;20042;-79
2023/05/14 12:58:36;;;;;;;12.68;7.65;;;;;;;;;;4992238;28;20054;-79
2023/05/14 13:01:01;;;;;;;11.48;7.03;;;;;;;;;;4993882;28;20483;-78
2023/05/14 13:03:27;;;;;;;11.27;6.50;;;;;;;;;;4986001;28;20034;-78
2023/05/14 13:05:53;;;;;;;14.52;7.00;;;;;;;;;;4978437;28;20542;-79
2023/05/14 13:08:20;;;;;;;10.40;6.63;;;;;;;;;;4976192;28;20057;-79
2023/05/14 13:10:46;;;;;;;12.00;6.75;;;;;;;;;;4976723;28;20456;-79
2023/05/14 13:13:14;;;;;;;12.05;6.88;;;;;;;;;;4984609;28;20080;-79
2023/05/14 13:15:39;;;;;;;10.93;6.90;;;;;;;;;;4979520;28;20038;-79
2023/05/14 13:18:05;;;;;;;13.27;6.72;;;;;;;;;;4993756;28;20038;-79
2023/05/14 13:20:30;;;;;;;9.52;6.80;;;;;;;;;;4979889;28;20502;-79
2023/05/14 13:22:56;;;;;;;12.07;8.13;;;;;;;;;;4993815;28;20395;-79
2023/05/14 13:25:22;;;;;;;14.10;7.85;;;;;;;;;;4993589;28;20030;-78
2023/05/14 13:27:49;;;;;;;13.70;7.55;;;;;;;;;;4993764;28;20050;-78
2023/05/14 13:30:16;;;;;;;10.77;7.28;;;;;;;;;;4993601;28;20169;-78
2023/05/14 13:32:41;;;;;;;15.52;8.00;;;;;;;;;;4979950;28;20038;-79
2023/05/14 13:35:07;;;;;;;15.63;7.40;;;;;;;;;;4991871;28;20038;-79
2023/05/14 13:37:33;;;;;;;12.15;8.00;;;;;;;;;;4993602;28;20042;-79
2023/05/14 13:39:58;;;;;;;11.25;7.25;;;;;;;;;;4993698;28;20038;-78
2023/05/14 13:42:23;;;;;;;11.40;7.05;;;;;;;;;;4993490;28;20034;-78
2023/05/14 13:44:49;;;;;;;10.68;7.28;;;;;;;;;;4993339;28;20042;-79
2023/05/14 13:47:14;;;;;;;12.43;7.35;;;;;;;;;;4993712;28;20030;-79
2023/05/14 13:49:40;;;;;;;11.63;7.32;;;;;;;;;;4997095;28;20042;-79
2023/05/14 13:52:05;;;;;;;14.50;6.93;;;;;;;;;;4997398;28;20112;-79
2023/05/14 13:54:31;;;;;;;13.77;7.53;;;;;;;;;;4997117;28;20036;-79
2023/05/14 13:56:56;;;;;;;16.63;7.88;;;;;;;;;;4997124;28;20045;-79
2023/05/14 13:59:22;;;;;;;11.23;7.57;;;;;;;;;;4997121;28;20041;-79
2023/05/14 14:01:48;;;;;;;15.35;8.70;;;;;;;;;;4993876;28;20042;-79
2023/05/14 14:04:15;;;;;;;14.38;8.70;;;;;;;;;;5021009;28;20046;-79
2023/05/14 14:06:40;;;;;;;14.18;9.10;;;;;;;;;;4985417;28;20043;-79
2023/05/14 14:09:06;;;;;;;14.52;8.30;;;;;;;;;;4987492;28;20090;-78
2023/05/14 14:11:31;;;;;;;16.48;8.43;;;;;;;;;;4994555;28;20518;-79
2023/05/14 14:13:56;;;;;;;15.77;8.70;;;;;;;;;;4995772;28;20038;-79
2023/05/14 14:16:22;;;;;;;13.95;8.50;;;;;;;;;;4996926;28;20030;-79